createdAt,value
2023-05-20T00:02:03.001Z,64.01
2023-05-20T00:07:04.552Z,63.46
2023-05-20T00:12:05.943Z,63.56
2023-05-20T00:17:06.735Z,64.66
2023-05-20T00:22:07.849Z,64.39
2023-05-20T00:27:08.623Z,65.34
2023-05-20T00:32:09.932Z,66.66
2023-05-20T00:37:10.728Z,65.69
2023-05-20T00:42:18.834Z,66.56
2023-05-20T00:47:25.928Z,69.18
2023-05-20T00:52:30.612Z,69.13
2023-05-20T00:57:31.430Z,69.71
2023-05-20T01:02:32.541Z,69.20
2023-05-20T01:07:33.608Z,70.24
2023-05-20T01:12:39.248Z,72.87
2023-05-20T01:17:45.900Z,72.75
2023-05-20T01:22:48.311Z,73.18
2023-05-20T01:27:50.221Z,73.29
2023-05-20T01:32:56.990Z,75.87
2023-05-20T01:37:59.290Z,75.59
2023-05-20T01:43:02.011Z,74.10
2023-05-20T01:48:03.400Z,75.51
2023-05-20T01:53:05.336Z,76.00
2023-05-20T01:58:06.124Z,75.21
2023-05-20T02:03:07.265Z,77.25
2023-05-20T02:08:10.149Z,76.91
2023-05-20T02:13:12.015Z,77.45
2023-05-20T02:18:17.684Z,77.50
2023-05-20T02:23:18.686Z,77.87
2023-05-20T02:28:19.555Z,79.15
2023-05-20T02:33:20.607Z,80.00
2023-05-20T02:38:21.499Z,81.15
2023-05-20T02:43:22.364Z,81.85
2023-05-20T02:48:23.198Z,83.48
2023-05-20T02:53:24.359Z,84.57
2023-05-20T02:58:25.470Z,85.48
2023-05-20T03:03:26.830Z,87.50
2023-05-20T03:08:27.732Z,87.93
2023-05-20T03:13:28.865Z,88.33
2023-05-20T03:18:32.573Z,89.39
2023-05-20T03:23:34.464Z,88.56
2023-05-20T03:28:35.581Z,88.77
2023-05-20T03:33:36.475Z,89.98
2023-05-20T03:38:37.783Z,89.47
2023-05-20T03:43:38.847Z,91.04
2023-05-20T03:48:40.370Z,90.96
2023-05-20T03:53:41.492Z,91.60
2023-05-20T03:58:43.566Z,92.92
2023-05-20T04:03:44.667Z,94.48
2023-05-20T04:08:45.721Z,93.74
2023-05-20T04:13:46.639Z,94.58
2023-05-20T04:18:48.256Z,94.97
2023-05-20T04:23:49.910Z,95.03
2023-05-20T04:28:51.149Z,95.56
2023-05-20T04:33:53.087Z,97.07
2023-05-20T04:38:57.084Z,96.74
2023-05-20T04:43:59.690Z,97.52
2023-05-20T04:49:00.599Z,98.51
2023-05-20T04:54:01.691Z,98.06
2023-05-20T04:59:03.370Z,99.15
2023-05-20T05:04:04.734Z,99.23
2023-05-20T05:09:05.649Z,99.33
2023-05-20T05:14:06.615Z,99.19
2023-05-20T05:19:10.329Z,99.13
2023-05-20T05:24:13.222Z,98.17
2023-05-20T05:29:14.867Z,98.01
2023-05-20T05:34:15.960Z,95.87
2023-05-20T05:39:16.843Z,94.76
2023-05-20T05:44:18.627Z,93.53
2023-05-20T05:49:20.746Z,92.75
2023-05-20T05:54:22.097Z,91.30
2023-05-20T05:59:23.881Z,89.08
2023-05-20T06:04:25.169Z,86.94
2023-05-20T06:09:28.726Z,86.08
2023-05-20T06:14:31.842Z,84.32
2023-05-20T06:19:33.022Z,84.84
2023-05-20T06:24:34.601Z,83.40
2023-05-20T06:29:36.240Z,85.70
2023-05-20T06:34:37.158Z,85.67
2023-05-20T06:39:38.116Z,90.19
2023-05-20T06:44:39.015Z,91.75
2023-05-20T06:49:49.472Z,90.18
2023-05-20T06:54:50.466Z,88.82
2023-05-20T06:59:52.244Z,89.24
2023-05-20T07:04:54.413Z,84.24
2023-05-20T07:09:56.935Z,86.40
2023-05-20T07:14:57.801Z,83.34
2023-05-20T07:19:59.737Z,82.72
2023-05-20T07:25:01.580Z,84.86
2023-05-20T07:30:03.545Z,87.42
2023-05-20T07:35:08.505Z,90.14
2023-05-20T07:40:10.143Z,92.05
2023-05-20T07:45:12.346Z,89.77
2023-05-20T07:50:13.406Z,87.68
2023-05-20T07:55:15.989Z,87.93
2023-05-20T08:00:17.373Z,85.93
2023-05-20T08:05:18.210Z,88.03
2023-05-20T08:10:20.316Z,83.12
2023-05-20T08:15:21.730Z,84.41
2023-05-20T08:20:23.165Z,86.18
2023-05-20T08:25:26.879Z,86.39
2023-05-20T08:30:28.297Z,81.46
2023-05-20T08:35:29.403Z,82.07
2023-05-20T08:40:30.877Z,82.98
2023-05-20T08:45:33.589Z,81.64
2023-05-20T08:50:38.457Z,83.23
2023-05-20T08:55:45.976Z,81.90
2023-05-20T09:00:46.830Z,84.21
2023-05-20T09:05:48.024Z,85.51
2023-05-20T09:10:51.881Z,80.83
2023-05-20T09:15:52.963Z,81.79
2023-05-20T09:20:54.380Z,79.62
2023-05-20T09:25:55.306Z,81.32
2023-05-20T09:30:59.274Z,80.63
2023-05-20T09:36:04.289Z,79.10
2023-05-20T09:41:07.849Z,79.66
2023-05-20T09:46:10.100Z,78.78
2023-05-20T09:51:12.641Z,81.81
2023-05-20T09:56:14.452Z,84.04
2023-05-20T10:01:15.468Z,87.18
2023-05-20T10:07:06.235Z,85.37
2023-05-20T10:12:45.355Z,84.85
2023-05-20T10:20:32.223Z,81.80
2023-05-20T10:25:33.672Z,82.55
2023-05-20T10:30:35.434Z,82.44
2023-05-20T10:35:47.457Z,83.50
2023-05-20T10:40:48.310Z,83.20
2023-05-20T10:45:54.970Z,86.48
2023-05-20T10:50:59.014Z,84.26
2023-05-20T10:55:59.892Z,82.31
2023-05-20T11:01:02.592Z,80.85
2023-05-20T11:06:16.054Z,83.51
2023-05-20T11:11:18.508Z,85.48
2023-05-20T11:16:22.446Z,85.07
2023-05-20T11:21:23.306Z,86.39
2023-05-20T11:26:24.127Z,85.29
2023-05-20T11:31:25.556Z,80.61
2023-05-20T11:36:28.418Z,74.31
2023-05-20T11:41:29.196Z,73.78
2023-05-20T11:46:30.530Z,75.88
2023-05-20T11:51:31.488Z,71.03
2023-05-20T11:56:36.700Z,68.37
2023-05-20T12:01:42.598Z,75.10
2023-05-20T12:06:43.520Z,66.99
2023-05-20T12:11:44.881Z,68.51
2023-05-20T12:16:45.712Z,66.83
2023-05-20T12:21:46.589Z,69.71
2023-05-20T12:26:47.502Z,70.99
2023-05-20T12:31:48.489Z,74.41
2023-05-20T12:36:49.323Z,72.40
2023-05-20T12:41:50.444Z,72.07
2023-05-20T12:46:54.265Z,69.33
2023-05-20T12:51:55.158Z,67.21
2023-05-20T12:56:56.446Z,68.34
2023-05-20T13:01:57.602Z,70.05
2023-05-20T13:06:58.857Z,70.57
2023-05-20T13:12:02.929Z,68.18
2023-05-20T13:17:04.347Z,61.26
2023-05-20T13:22:06.130Z,61.37
2023-05-20T13:27:07.536Z,66.77
2023-05-20T13:32:08.453Z,68.62
2023-05-20T13:37:09.302Z,69.69
2023-05-20T13:42:10.270Z,69.93
2023-05-20T13:47:11.109Z,72.39
2023-05-20T13:52:12.005Z,70.63
2023-05-20T13:57:12.848Z,71.70
2023-05-20T14:02:14.015Z,71.74
2023-05-20T14:07:15.029Z,72.99
2023-05-20T14:12:16.004Z,75.17
2023-05-20T14:17:17.075Z,75.93
2023-05-20T14:22:19.214Z,76.21
2023-05-20T14:27:20.208Z,74.70
2023-05-20T14:32:21.286Z,75.73
2023-05-20T14:37:22.324Z,75.45
2023-05-20T14:42:23.303Z,72.76
2023-05-20T14:47:25.368Z,72.02
2023-05-20T14:52:26.488Z,72.03
2023-05-20T14:57:27.512Z,71.21
2023-05-20T15:02:28.642Z,71.26
2023-05-20T15:07:29.683Z,69.43
2023-05-20T15:12:30.540Z,68.28
2023-05-20T15:17:31.417Z,72.03
2023-05-20T15:22:32.510Z,74.31
2023-05-20T15:27:33.351Z,71.03
2023-05-20T15:32:34.689Z,71.46
2023-05-20T15:37:35.714Z,70.18
2023-05-20T15:42:36.586Z,70.93
2023-05-20T15:47:40.421Z,73.34
2023-05-20T15:52:41.826Z,72.83
2023-05-20T15:57:42.682Z,69.02
2023-05-20T16:02:43.907Z,71.04
2023-05-20T16:07:46.075Z,71.35
2023-05-20T16:12:47.309Z,74.74
2023-05-20T16:17:48.181Z,74.25
2023-05-20T16:22:49.458Z,75.58
2023-05-20T16:27:50.527Z,77.00
2023-05-20T16:32:51.643Z,75.71
2023-05-20T16:37:52.498Z,75.76
2023-05-20T16:42:53.607Z,78.86
2023-05-20T16:47:55.663Z,76.61
2023-05-20T16:52:58.248Z,78.41
2023-05-20T16:57:59.072Z,77.98
2023-05-20T17:03:00.400Z,79.16
2023-05-20T17:08:01.368Z,78.54
2023-05-20T17:13:03.325Z,79.41
2023-05-20T17:18:04.321Z,77.19
2023-05-20T17:23:05.340Z,77.83
2023-05-20T17:28:06.226Z,79.24
2023-05-20T17:33:07.311Z,77.61
2023-05-20T17:38:08.210Z,77.26
2023-05-20T17:43:09.129Z,78.21
2023-05-20T17:48:11.725Z,77.76
2023-05-20T17:53:12.889Z,78.94
2023-05-20T17:58:13.753Z,79.71
2023-05-20T18:03:14.820Z,80.18
2023-05-20T18:08:18.324Z,80.71
2023-05-20T18:13:19.209Z,82.02
2023-05-20T18:18:20.091Z,82.79
2023-05-20T18:23:20.901Z,82.93
2023-05-20T18:28:21.707Z,83.29
2023-05-20T18:33:23.721Z,84.26
2023-05-20T18:38:25.135Z,85.43
2023-05-20T18:43:26.526Z,86.93
2023-05-20T18:48:27.626Z,87.16
2023-05-20T18:53:28.635Z,88.02
2023-05-20T18:58:29.911Z,89.24
2023-05-20T19:03:30.908Z,89.18
2023-05-20T19:08:31.765Z,90.39
2023-05-20T19:13:33.555Z,91.00
2023-05-20T19:18:34.422Z,92.51
2023-05-20T19:23:35.567Z,93.23
2023-05-20T19:28:36.392Z,93.55
2023-05-20T19:33:37.567Z,94.54
2023-05-20T19:38:38.387Z,95.38
2023-05-20T19:43:40.030Z,96.59
2023-05-20T19:48:41.441Z,96.80
2023-05-20T19:53:42.279Z,97.96
2023-05-20T19:58:43.114Z,98.08
2023-05-20T20:03:45.370Z,99.15
2023-05-20T20:08:46.292Z,99.76
2023-05-20T20:13:47.172Z,100.00
2023-05-20T20:18:47.997Z,100.00
2023-05-20T20:23:48.881Z,100.00
2023-05-20T20:28:49.845Z,100.00
2023-05-20T20:33:51.475Z,100.00
2023-05-20T20:38:52.292Z,100.00
2023-05-20T20:43:53.762Z,100.00
2023-05-20T20:48:54.580Z,100.00
2023-05-20T20:53:55.479Z,100.00
2023-05-20T20:58:56.406Z,100.00
2023-05-20T21:03:57.905Z,100.00
2023-05-20T21:09:01.258Z,100.00
2023-05-20T21:14:02.053Z,100.00
2023-05-20T21:19:03.176Z,100.00
2023-05-20T21:24:04.289Z,100.00
2023-05-20T21:29:06.527Z,100.00
2023-05-20T21:34:07.466Z,100.00
2023-05-20T21:39:08.392Z,100.00
2023-05-20T21:44:09.241Z,100.00
2023-05-20T21:49:10.106Z,100.00
2023-05-20T21:54:10.928Z,100.00
2023-05-20T21:59:12.141Z,100.00
2023-05-20T22:04:13.117Z,100.00
2023-05-20T22:09:14.108Z,100.00
2023-05-20T22:14:15.296Z,100.00
2023-05-20T22:19:16.900Z,100.00
2023-05-20T22:24:17.988Z,100.00
2023-05-20T22:29:19.110Z,100.00
2023-05-20T22:34:19.993Z,100.00
2023-05-20T22:39:21.277Z,100.00
2023-05-20T22:44:22.070Z,100.00
2023-05-20T22:49:25.910Z,100.00
2023-05-20T22:54:26.755Z,100.00
2023-05-20T22:59:30.371Z,100.00
2023-05-20T23:04:31.552Z,100.00
2023-05-20T23:09:32.741Z,100.00
2023-05-20T23:14:33.793Z,100.00
2023-05-20T23:19:34.753Z,100.00
2023-05-20T23:24:35.664Z,100.00
2023-05-20T23:29:37.026Z,100.00
2023-05-20T23:34:37.950Z,100.00
2023-05-20T23:39:38.792Z,100.00
2023-05-20T23:44:39.979Z,100.00
2023-05-20T23:49:40.824Z,100.00
2023-05-20T23:54:41.633Z,100.00
2023-05-20T23:59:42.929Z,100.00
